Enter the Airport ICAO Code

Search by Airport or City

Current Weather

LEHC | Huesca–Pirineos Airport

Huesca, Aragon, Spain

Last Update 16 Minutes Ago

Clear Sky

Temperature of 15 ºC

Light to Moderate Winds from East

Temperature

15 ºC

Dew Point Temperature

13 ºC

Relative Humidity

87.89 %

Wind Direction

East (080º, Without Significant Variations)

Wind Velocity

11 km/h (06 kt)

Gusts

None

Visibility

No Significant Reductions

Sea Level Pressure

1019 hPa (Hectopascals)

Layers of Clouds

None

METAR LEHC 202130Z AUTO 08006KT CAVOK 15/13 Q1019

Weather Forecast

LEHC | Huesca–Pirineos Airport

Huesca, Aragon, Spain

Forecast valid for the next 17 Hours

From now on it is expected:

Light Winds from Variable Directions

In 4 hours it is expected the begining of 5 hours with intermittent periods of:

Mist

In 8 to 10 hours it is expected the begining of:

Moderate Winds from NorthWest

In 13 hours it is expected the begining of 4 hours with intermittent periods of:

Moderate Winds from NorthWest with Gusts

Maximum Temperature

21 ºC in 16 Hours

Minimum Temperature

10 ºC in 8 Hours

TAF LEHC 201400Z 2015/2115 10010KT 9999 FEW020 TX21/2114Z TN10/2106Z BECMG 2020/2022 VRB03KT PROB30 TEMPO 2102/2107 4000 BR BKN014 BECMG 2106/2108 30012KT TEMPO 2111/2115 30015G25KT